createdAt,value
2019-03-28T00:02:21.655Z,51.66
2019-03-28T00:04:49.066Z,51.83
2019-03-28T00:07:16.499Z,52.02
2019-03-28T00:09:44.075Z,52.24
2019-03-28T00:12:11.491Z,52.16
2019-03-28T00:14:38.882Z,52.07
2019-03-28T00:17:06.322Z,51.84
2019-03-28T00:19:33.908Z,51.79
2019-03-28T00:22:01.307Z,51.81
2019-03-28T00:27:21.248Z,51.19
2019-03-28T00:29:48.390Z,51.14
2019-03-28T00:32:15.954Z,51.42
2019-03-28T00:34:43.432Z,51.62
2019-03-28T00:37:10.825Z,51.83
2019-03-28T00:39:38.269Z,52.10
2019-03-28T00:42:05.675Z,52.35
2019-03-28T00:44:33.363Z,52.38
2019-03-28T00:47:00.859Z,52.18
2019-03-28T00:49:28.247Z,52.32
2019-03-28T00:51:55.662Z,52.45
2019-03-28T00:54:23.065Z,52.45
2019-03-28T00:56:51.668Z,52.42
2019-03-28T00:59:19.108Z,52.36
2019-03-28T01:01:46.499Z,52.10
2019-03-28T01:04:13.903Z,51.86
2019-03-28T01:06:41.296Z,51.67
2019-03-28T01:09:08.713Z,51.37
2019-03-28T01:11:37.090Z,51.18
2019-03-28T01:14:03.843Z,51.03
2019-03-28T01:16:31.473Z,51.10
2019-03-28T01:18:58.870Z,51.36
2019-03-28T01:21:26.277Z,51.68
2019-03-28T01:23:53.679Z,51.86
2019-03-28T01:26:21.101Z,51.95
2019-03-28T01:28:48.499Z,51.78
2019-03-28T01:31:15.898Z,51.68
2019-03-28T01:33:43.355Z,51.63
2019-03-28T01:36:10.741Z,51.59
2019-03-28T01:38:38.156Z,51.59
2019-03-28T01:41:05.595Z,51.56
2019-03-28T01:43:33.024Z,51.72
2019-03-28T01:46:00.442Z,51.60
2019-03-28T01:48:27.841Z,51.69
2019-03-28T01:50:55.241Z,51.85
2019-03-28T01:53:22.864Z,52.07
2019-03-28T01:55:50.318Z,52.11
2019-03-28T01:58:17.722Z,52.07
2019-03-28T02:00:45.134Z,52.16
2019-03-28T02:03:12.533Z,52.16
2019-03-28T02:05:39.926Z,52.37
2019-03-28T02:08:07.333Z,52.14
2019-03-28T02:10:34.790Z,51.80
2019-03-28T02:13:02.584Z,51.43
2019-03-28T02:15:30.251Z,51.35
2019-03-28T02:17:57.511Z,51.42
2019-03-28T02:20:25.014Z,51.31
2019-03-28T02:22:52.420Z,51.46
2019-03-28T02:25:19.854Z,51.41
2019-03-28T02:27:47.363Z,51.45
2019-03-28T02:30:14.786Z,51.50
2019-03-28T02:32:42.266Z,51.51
2019-03-28T02:35:09.669Z,51.52
2019-03-28T02:37:37.113Z,51.66
2019-03-28T02:40:05.263Z,51.64
2019-03-28T02:42:32.683Z,51.62
2019-03-28T02:45:00.275Z,51.81
2019-03-28T02:47:27.497Z,52.03
2019-03-28T02:49:59.851Z,52.25
2019-03-28T02:52:27.247Z,52.56
2019-03-28T02:54:54.659Z,52.66
2019-03-28T02:57:22.059Z,52.74
2019-03-28T02:59:49.880Z,52.75
2019-03-28T03:02:17.299Z,52.78
2019-03-28T03:04:44.709Z,52.83
2019-03-28T03:07:12.127Z,52.97
2019-03-28T03:09:39.571Z,53.07
2019-03-28T03:12:06.982Z,53.21
2019-03-28T03:14:34.800Z,53.43
2019-03-28T03:17:02.188Z,53.62
2019-03-28T03:19:29.608Z,53.67
2019-03-28T03:21:56.996Z,53.72
2019-03-28T03:24:24.397Z,53.81
2019-03-28T03:26:51.807Z,53.79
2019-03-28T03:29:19.780Z,53.93
2019-03-28T03:31:47.183Z,54.13
2019-03-28T03:34:14.764Z,54.29
2019-03-28T03:36:42.175Z,54.34
2019-03-28T03:39:09.608Z,54.24
2019-03-28T03:41:37.046Z,54.21
2019-03-28T03:44:04.508Z,54.17
2019-03-28T03:46:31.971Z,54.16
2019-03-28T03:48:59.408Z,54.12
2019-03-28T03:51:26.837Z,54.20
2019-03-28T03:53:54.424Z,54.33
2019-03-28T03:56:21.854Z,54.59
2019-03-28T03:58:49.261Z,54.80
2019-03-28T04:01:16.705Z,55.04
2019-03-28T04:03:44.197Z,54.81
2019-03-28T04:06:11.591Z,54.44
2019-03-28T04:08:39.339Z,54.42
2019-03-28T04:11:06.949Z,54.54
2019-03-28T04:13:34.428Z,55.23
2019-03-28T04:16:01.838Z,56.05
2019-03-28T04:18:29.598Z,56.41
2019-03-28T04:20:56.983Z,56.57
2019-03-28T04:23:24.392Z,56.66
2019-03-28T04:25:51.873Z,57.20
2019-03-28T04:28:30.822Z,57.64
2019-03-28T04:30:46.713Z,57.80
2019-03-28T04:33:14.148Z,57.69
2019-03-28T04:35:41.537Z,57.49
2019-03-28T04:38:08.933Z,57.40
2019-03-28T04:40:36.503Z,57.46
2019-03-28T04:43:03.989Z,57.47
2019-03-28T04:45:31.488Z,57.37
2019-03-28T04:47:58.903Z,57.16
2019-03-28T04:50:26.615Z,57.02
2019-03-28T04:52:54.011Z,56.95
2019-03-28T04:55:21.554Z,56.82
2019-03-28T04:57:48.836Z,56.91
2019-03-28T05:00:16.231Z,57.15
2019-03-28T05:02:46.031Z,57.23
2019-03-28T05:05:11.107Z,57.23
2019-03-28T05:07:38.539Z,57.14
2019-03-28T05:10:05.973Z,56.95
2019-03-28T05:12:33.448Z,56.79
2019-03-28T05:15:00.933Z,56.59
2019-03-28T05:17:28.323Z,56.53
2019-03-28T05:19:56.104Z,56.33
2019-03-28T05:22:23.768Z,56.46
2019-03-28T05:24:51.172Z,56.67
2019-03-28T05:27:19.135Z,56.85
2019-03-28T05:29:46.543Z,56.89
2019-03-28T05:32:13.967Z,56.98
2019-03-28T05:34:41.364Z,57.18
2019-03-28T05:37:08.791Z,57.24
2019-03-28T05:39:36.644Z,57.18
2019-03-28T05:42:04.035Z,57.27
2019-03-28T05:44:31.459Z,57.42
2019-03-28T05:46:58.868Z,57.48
2019-03-28T05:49:26.971Z,57.27
2019-03-28T05:51:54.387Z,56.85
2019-03-28T05:54:21.782Z,56.66
2019-03-28T05:56:49.208Z,56.15
2019-03-28T05:59:16.671Z,55.88
2019-03-28T06:01:44.254Z,55.40
2019-03-28T06:04:11.697Z,55.14
2019-03-28T06:06:39.192Z,55.14
2019-03-28T06:09:06.625Z,55.17
2019-03-28T06:11:34.040Z,55.00
2019-03-28T06:14:01.490Z,54.55
2019-03-28T06:16:28.899Z,54.05
2019-03-28T06:18:56.321Z,54.15
2019-03-28T06:21:23.719Z,54.07
2019-03-28T06:23:51.134Z,54.29
2019-03-28T06:26:18.545Z,54.02
2019-03-28T06:28:47.054Z,53.65
2019-03-28T06:31:14.455Z,53.50
2019-03-28T06:33:42.289Z,53.40
2019-03-28T06:36:09.691Z,53.33
2019-03-28T06:38:37.091Z,52.96
2019-03-28T06:41:04.855Z,52.52
2019-03-28T06:43:32.240Z,52.22
2019-03-28T06:45:59.647Z,52.28
2019-03-28T06:48:27.054Z,52.09
2019-03-28T06:50:54.548Z,51.70
2019-03-28T06:53:22.033Z,51.62
2019-03-28T06:55:49.437Z,51.77
2019-03-28T06:58:16.835Z,51.74
2019-03-28T07:00:44.244Z,51.69
2019-03-28T07:03:12.907Z,51.95
2019-03-28T07:05:39.389Z,51.74
2019-03-28T07:08:07.574Z,51.57
2019-03-28T07:10:35.010Z,51.58
2019-03-28T07:13:02.408Z,51.59
2019-03-28T07:15:29.904Z,51.32
2019-03-28T07:17:57.302Z,51.20
2019-03-28T07:20:24.747Z,51.12
2019-03-28T07:22:52.146Z,51.00
2019-03-28T07:25:19.547Z,50.93
2019-03-28T07:27:47.014Z,50.67
2019-03-28T07:30:14.473Z,50.55
2019-03-28T07:32:43.547Z,50.49
2019-03-28T07:35:09.634Z,50.20
2019-03-28T07:37:37.047Z,50.06
2019-03-28T07:40:05.415Z,50.00
2019-03-28T07:42:32.717Z,49.92
2019-03-28T07:45:00.302Z,49.75
2019-03-28T07:47:27.583Z,49.65
2019-03-28T07:49:55.641Z,49.32
2019-03-28T07:52:23.045Z,49.10
2019-03-28T07:54:50.435Z,48.94
2019-03-28T07:57:17.868Z,48.80
2019-03-28T07:59:45.397Z,48.53
2019-03-28T08:02:12.936Z,48.27
2019-03-28T08:04:40.355Z,47.93
2019-03-28T08:07:07.859Z,47.63
2019-03-28T08:09:36.969Z,47.71
2019-03-28T08:12:03.992Z,48.27
2019-03-28T08:14:30.831Z,48.02
2019-03-28T08:16:58.233Z,47.55
2019-03-28T08:19:25.642Z,47.07
2019-03-28T08:21:53.044Z,46.75
2019-03-28T08:24:20.479Z,46.83
2019-03-28T08:26:48.014Z,47.13
2019-03-28T08:29:16.529Z,47.12
2019-03-28T08:31:45.171Z,46.51
2019-03-28T08:34:12.631Z,45.92
2019-03-28T08:36:40.017Z,45.57
2019-03-28T08:39:07.411Z,45.30
2019-03-28T08:41:34.999Z,45.38
2019-03-28T08:44:02.367Z,45.28
2019-03-28T08:46:29.763Z,45.18
2019-03-28T08:48:57.247Z,44.88
2019-03-28T08:51:27.256Z,44.52
2019-03-28T08:53:52.110Z,44.46
2019-03-28T08:56:19.533Z,44.41
2019-03-28T08:58:47.054Z,44.11
2019-03-28T09:01:14.480Z,44.21
2019-03-28T09:03:41.931Z,44.69
2019-03-28T09:06:10.622Z,45.31
2019-03-28T09:08:38.042Z,45.29
2019-03-28T09:11:05.505Z,45.57
2019-03-28T09:13:32.929Z,44.95
2019-03-28T09:16:00.442Z,44.23
2019-03-28T09:18:27.984Z,43.83
2019-03-28T09:20:55.489Z,44.22
2019-03-28T09:23:22.922Z,44.66
2019-03-28T09:25:50.343Z,44.96
2019-03-28T09:28:17.776Z,44.36
2019-03-28T09:30:49.493Z,44.31
2019-03-28T09:33:12.961Z,43.87
2019-03-28T09:35:40.425Z,44.22
2019-03-28T09:38:07.841Z,44.17
2019-03-28T09:40:35.262Z,43.84
2019-03-28T09:43:02.722Z,44.45
2019-03-28T09:45:30.265Z,43.88
2019-03-28T09:47:57.594Z,43.16
2019-03-28T09:50:25.041Z,43.59
2019-03-28T09:52:52.541Z,42.91
2019-03-28T09:55:20.005Z,43.39
2019-03-28T09:57:47.385Z,43.16
2019-03-28T10:00:14.855Z,41.88
2019-03-28T10:02:44.102Z,42.12
2019-03-28T10:05:10.063Z,42.24
2019-03-28T10:07:38.704Z,41.26
2019-03-28T10:10:05.426Z,40.86
2019-03-28T10:12:34.214Z,41.05
2019-03-28T10:15:00.551Z,41.67
2019-03-28T10:17:29.207Z,42.00
2019-03-28T10:19:56.712Z,42.42
2019-03-28T10:22:24.143Z,41.38
2019-03-28T10:24:51.701Z,40.77
2019-03-28T10:27:20.222Z,40.96
2019-03-28T10:29:47.783Z,41.16
2019-03-28T10:32:15.335Z,40.99
2019-03-28T10:34:42.761Z,40.22
2019-03-28T10:37:10.274Z,39.40
2019-03-28T10:39:37.942Z,39.50
2019-03-28T10:42:05.407Z,38.31
2019-03-28T10:44:32.991Z,37.96
2019-03-28T10:47:00.494Z,38.69
2019-03-28T10:49:27.903Z,39.21
2019-03-28T10:51:55.322Z,39.85
2019-03-28T10:54:25.587Z,38.91
2019-03-28T10:56:52.480Z,38.53
2019-03-28T10:59:23.675Z,38.89
2019-03-28T11:01:49.977Z,39.16
2019-03-28T11:04:12.852Z,38.57
2019-03-28T11:06:40.280Z,37.25
2019-03-28T11:09:08.459Z,36.26
2019-03-28T11:11:35.400Z,36.33
2019-03-28T11:14:02.793Z,36.40
2019-03-28T11:16:30.230Z,35.83
2019-03-28T11:18:57.670Z,34.90
2019-03-28T11:21:25.095Z,33.78
2019-03-28T11:23:52.678Z,34.10
2019-03-28T11:26:20.125Z,33.80
2019-03-28T11:28:47.560Z,34.75
2019-03-28T11:31:14.997Z,34.83
2019-03-28T11:33:42.431Z,34.77
2019-03-28T11:36:09.857Z,35.20
2019-03-28T11:38:37.330Z,35.15
2019-03-28T11:41:04.759Z,34.89
2019-03-28T11:43:32.268Z,34.71
2019-03-28T11:45:59.699Z,34.35
2019-03-28T11:48:27.142Z,34.28
2019-03-28T11:50:54.605Z,34.27
2019-03-28T11:53:22.096Z,33.89
2019-03-28T11:55:49.552Z,33.59
2019-03-28T11:58:16.990Z,33.34
2019-03-28T12:00:44.395Z,33.39
2019-03-28T12:03:11.848Z,33.27
2019-03-28T12:05:39.263Z,32.93
2019-03-28T12:08:06.655Z,32.84
2019-03-28T12:10:34.150Z,32.67
2019-03-28T12:13:01.705Z,32.41
2019-03-28T12:15:29.155Z,32.54
2019-03-28T12:17:56.611Z,32.14
2019-03-28T12:20:24.047Z,31.70
2019-03-28T12:22:51.481Z,31.85
2019-03-28T12:25:18.908Z,31.33
2019-03-28T12:27:46.384Z,31.74
2019-03-28T12:30:15.941Z,31.30
2019-03-28T12:32:41.279Z,31.47
2019-03-28T12:35:08.702Z,31.13
2019-03-28T12:37:36.720Z,30.66
2019-03-28T12:40:04.461Z,30.78
2019-03-28T12:42:31.935Z,30.87
2019-03-28T12:44:59.419Z,30.42
2019-03-28T12:47:26.957Z,30.28
2019-03-28T12:49:55.026Z,30.80
2019-03-28T12:52:22.492Z,31.36
2019-03-28T12:54:49.913Z,30.96
2019-03-28T12:57:17.371Z,30.71
2019-03-28T12:59:44.851Z,30.80
2019-03-28T13:02:12.267Z,30.78
2019-03-28T13:04:39.670Z,30.67
2019-03-28T13:07:07.106Z,30.69
2019-03-28T13:09:35.758Z,30.20
2019-03-28T13:12:02.019Z,30.25
2019-03-28T13:14:31.458Z,30.27
2019-03-28T13:16:57.679Z,29.23
2019-03-28T13:19:26.750Z,29.50
2019-03-28T13:21:54.159Z,29.23
2019-03-28T13:24:21.575Z,29.33
2019-03-28T13:26:48.998Z,29.38
2019-03-28T13:29:16.407Z,29.38
2019-03-28T13:31:44.251Z,29.20
2019-03-28T13:34:11.652Z,28.85
2019-03-28T13:36:39.085Z,30.09
2019-03-28T13:39:06.538Z,29.64
2019-03-28T13:41:33.944Z,29.25
2019-03-28T13:44:01.474Z,29.19
2019-03-28T13:46:28.876Z,29.06
2019-03-28T13:48:56.297Z,29.22
2019-03-28T13:51:24.141Z,28.44
2019-03-28T13:53:52.236Z,28.50
2019-03-28T13:56:19.034Z,28.46
2019-03-28T13:58:46.445Z,28.48
2019-03-28T14:01:13.867Z,28.97
2019-03-28T14:03:41.272Z,29.09
2019-03-28T14:06:08.667Z,28.86
2019-03-28T14:08:36.201Z,28.89
2019-03-28T14:11:03.649Z,28.32
2019-03-28T14:13:31.105Z,28.35
2019-03-28T14:15:58.547Z,27.79
2019-03-28T14:18:26.025Z,27.75
2019-03-28T14:20:53.483Z,27.29
2019-03-28T14:23:20.941Z,27.29
2019-03-28T14:25:48.405Z,27.23
2019-03-28T14:28:15.814Z,27.76
2019-03-28T14:30:43.264Z,28.04
2019-03-28T14:33:12.979Z,27.86
2019-03-28T14:35:38.113Z,29.05
2019-03-28T14:38:05.555Z,27.80
2019-03-28T14:40:33.883Z,27.69
2019-03-28T14:43:01.362Z,27.81
2019-03-28T14:45:28.844Z,27.54
2019-03-28T14:47:56.850Z,27.22
2019-03-28T14:50:34.943Z,27.68
2019-03-28T14:53:02.468Z,27.23
2019-03-28T14:55:30.129Z,27.38
2019-03-28T14:57:57.491Z,27.98
2019-03-28T15:00:42.796Z,27.97
2019-03-28T15:03:24.532Z,27.71
2019-03-28T15:05:38.371Z,27.86
2019-03-28T15:08:05.795Z,27.49
2019-03-28T15:10:33.271Z,27.38
2019-03-28T15:13:00.699Z,26.36
2019-03-28T15:15:28.416Z,26.16
2019-03-28T15:17:55.825Z,26.11
2019-03-28T15:20:23.303Z,26.29
2019-03-28T15:22:50.704Z,26.94
2019-03-28T15:25:18.275Z,27.00
2019-03-28T15:27:45.774Z,27.31
2019-03-28T15:30:13.279Z,27.26
2019-03-28T15:32:40.729Z,27.63
2019-03-28T15:35:08.956Z,27.40
2019-03-28T15:37:36.373Z,27.53
2019-03-28T15:40:04.737Z,28.39
2019-03-28T15:42:32.217Z,28.22
2019-03-28T15:44:59.633Z,27.11
2019-03-28T15:47:28.342Z,27.99
2019-03-28T15:49:55.799Z,28.02
2019-03-28T15:52:27.289Z,27.72
2019-03-28T15:54:51.603Z,27.65
2019-03-28T15:57:19.075Z,27.01
2019-03-28T15:59:46.488Z,27.13
2019-03-28T16:02:13.943Z,27.65
2019-03-28T16:04:41.400Z,27.83
2019-03-28T16:07:08.836Z,28.70
2019-03-28T16:09:36.276Z,28.46
2019-03-28T16:12:03.815Z,28.13
2019-03-28T16:14:31.241Z,28.38
2019-03-28T16:16:58.674Z,28.84
2019-03-28T16:19:26.118Z,29.15
2019-03-28T16:21:53.507Z,28.76
2019-03-28T16:24:21.119Z,29.23
2019-03-28T16:26:48.535Z,29.72
2019-03-28T16:29:15.959Z,29.74
2019-03-28T16:31:43.470Z,29.69
2019-03-28T16:34:10.979Z,30.47
2019-03-28T16:36:38.471Z,30.43
2019-03-28T16:39:05.952Z,30.15
2019-03-28T16:41:33.446Z,30.03
2019-03-28T16:44:00.864Z,30.38
2019-03-28T16:46:28.280Z,31.07
2019-03-28T16:48:55.713Z,31.07
2019-03-28T16:51:23.247Z,31.04
2019-03-28T16:53:50.716Z,31.18
2019-03-28T16:56:18.206Z,31.15
2019-03-28T16:58:45.900Z,31.23
2019-03-28T17:01:13.159Z,31.62
2019-03-28T17:03:40.585Z,31.47
2019-03-28T17:06:08.042Z,31.84
2019-03-28T17:08:35.414Z,31.95
2019-03-28T17:11:02.834Z,32.53
2019-03-28T17:13:31.195Z,32.73
2019-03-28T17:15:58.652Z,33.04
2019-03-28T17:18:26.252Z,33.39
2019-03-28T17:20:53.672Z,33.28
2019-03-28T17:23:21.073Z,33.47
2019-03-28T17:25:49.201Z,34.13
2019-03-28T17:28:16.819Z,34.39
2019-03-28T17:30:44.919Z,34.80
2019-03-28T17:33:12.319Z,35.06
2019-03-28T17:35:40.586Z,35.27
2019-03-28T17:38:08.001Z,35.65
2019-03-28T17:40:36.749Z,36.17
2019-03-28T17:43:02.047Z,36.57
2019-03-28T17:45:29.510Z,36.81
2019-03-28T17:47:56.906Z,37.17
2019-03-28T17:50:24.366Z,37.87
2019-03-28T17:52:51.772Z,38.08
2019-03-28T17:55:19.802Z,38.61
2019-03-28T17:57:46.672Z,38.98
2019-03-28T18:00:14.125Z,39.14
2019-03-28T18:02:41.051Z,39.28
2019-03-28T18:05:09.447Z,39.52
2019-03-28T18:07:35.721Z,39.66
2019-03-28T18:10:03.134Z,39.67
2019-03-28T18:12:30.210Z,39.71
2019-03-28T18:14:57.315Z,39.77
2019-03-28T18:17:24.251Z,40.00
2019-03-28T18:19:51.682Z,40.13
2019-03-28T18:22:19.083Z,40.47
2019-03-28T18:24:46.508Z,40.78
2019-03-28T18:27:13.503Z,40.76
2019-03-28T18:29:40.470Z,41.01
2019-03-28T18:32:07.884Z,41.45
2019-03-28T18:34:35.274Z,41.76
2019-03-28T18:37:02.756Z,41.88
2019-03-28T18:39:30.177Z,42.27
2019-03-28T18:41:57.620Z,42.31
2019-03-28T18:44:25.027Z,42.69
2019-03-28T18:46:52.465Z,42.82
2019-03-28T18:49:20.031Z,42.83
2019-03-28T18:51:47.464Z,42.81
2019-03-28T18:54:14.895Z,42.94
2019-03-28T18:56:42.315Z,42.97
2019-03-28T18:59:09.710Z,43.06
2019-03-28T19:01:37.128Z,43.05
2019-03-28T19:04:04.584Z,43.22
2019-03-28T19:06:31.990Z,43.17
2019-03-28T19:08:59.561Z,43.06
2019-03-28T19:11:26.955Z,42.88
2019-03-28T19:13:54.381Z,42.84
2019-03-28T19:16:21.996Z,42.88
2019-03-28T19:18:49.266Z,42.87
2019-03-28T19:21:16.681Z,42.91
2019-03-28T19:23:44.201Z,43.19
2019-03-28T19:26:11.601Z,43.21
2019-03-28T19:28:39.003Z,43.14
2019-03-28T19:31:06.471Z,43.03
2019-03-28T19:33:33.878Z,43.05
2019-03-28T19:36:01.567Z,43.28
2019-03-28T19:38:28.723Z,43.43
2019-03-28T19:40:56.157Z,43.27
2019-03-28T19:43:23.675Z,43.25
2019-03-28T19:45:51.240Z,43.17
2019-03-28T19:48:18.651Z,43.17
2019-03-28T19:50:46.084Z,43.09
2019-03-28T19:53:13.488Z,43.13
2019-03-28T19:55:40.925Z,43.27
2019-03-28T19:58:08.654Z,43.45
2019-03-28T20:00:36.137Z,43.14
2019-03-28T20:03:03.576Z,43.13
2019-03-28T20:05:31.054Z,43.04
2019-03-28T20:07:58.482Z,43.10
2019-03-28T20:10:25.889Z,43.42
2019-03-28T20:12:53.353Z,43.17
2019-03-28T20:15:20.756Z,43.25
2019-03-28T20:17:48.201Z,43.11
2019-03-28T20:20:16.459Z,43.07
2019-03-28T20:22:45.093Z,42.97
2019-03-28T20:25:11.319Z,42.87
2019-03-28T20:27:38.728Z,42.89
2019-03-28T20:30:06.137Z,42.88
2019-03-28T20:32:33.541Z,42.93
2019-03-28T20:35:00.973Z,42.92
2019-03-28T20:37:28.374Z,42.98
2019-03-28T20:39:55.779Z,42.97
2019-03-28T20:42:23.195Z,42.93
2019-03-28T20:44:50.611Z,42.89
2019-03-28T20:47:18.001Z,42.88
2019-03-28T20:49:46.831Z,43.00
2019-03-28T20:52:13.588Z,42.90
2019-03-28T20:54:40.988Z,43.32
2019-03-28T20:57:08.392Z,43.57
2019-03-28T20:59:35.809Z,43.78
2019-03-28T21:02:03.307Z,44.00
2019-03-28T21:04:31.879Z,44.22
2019-03-28T21:06:58.167Z,44.50
2019-03-28T21:09:25.567Z,44.89
2019-03-28T21:11:52.965Z,45.02
2019-03-28T21:14:20.375Z,45.04
2019-03-28T21:16:47.785Z,45.21
2019-03-28T21:19:15.235Z,45.49
2019-03-28T21:21:44.523Z,45.61
2019-03-28T21:24:10.186Z,45.68
2019-03-28T21:26:37.609Z,45.69
2019-03-28T21:29:04.998Z,46.11
2019-03-28T21:31:32.574Z,46.34
2019-03-28T21:34:00.014Z,46.41
2019-03-28T21:36:29.994Z,46.53
2019-03-28T21:38:54.863Z,47.23
2019-03-28T21:41:23.173Z,47.75
2019-03-28T21:43:50.793Z,48.03
2019-03-28T21:46:18.225Z,48.31
2019-03-28T21:48:45.613Z,48.26
2019-03-28T21:51:13.023Z,48.48
2019-03-28T21:53:40.428Z,48.40
2019-03-28T21:56:07.890Z,48.34
2019-03-28T21:58:35.613Z,48.30
2019-03-28T22:01:03.025Z,47.93
2019-03-28T22:03:30.492Z,48.07
2019-03-28T22:05:57.955Z,48.38
2019-03-28T22:08:25.403Z,48.63
2019-03-28T22:10:52.839Z,48.76
2019-03-28T22:13:20.278Z,48.78
2019-03-28T22:15:47.715Z,49.05
2019-03-28T22:18:15.133Z,49.41
2019-03-28T22:20:43.683Z,49.83
2019-03-28T22:23:13.323Z,50.31
2019-03-28T22:25:37.398Z,50.70
2019-03-28T22:28:05.351Z,50.96
2019-03-28T22:30:32.765Z,50.80
2019-03-28T22:33:00.173Z,50.76
2019-03-28T22:35:27.592Z,50.90
2019-03-28T22:37:55.054Z,51.07
2019-03-28T22:40:22.454Z,51.15
2019-03-28T22:42:49.868Z,51.46
2019-03-28T22:45:17.991Z,51.21
2019-03-28T22:47:44.738Z,51.27
2019-03-28T22:50:12.126Z,50.66
2019-03-28T22:52:39.572Z,50.55
2019-03-28T22:55:07.040Z,50.51
2019-03-28T22:57:34.462Z,50.59
2019-03-28T23:00:04.201Z,50.61
2019-03-28T23:02:29.314Z,50.82
2019-03-28T23:04:56.799Z,51.03
2019-03-28T23:07:24.370Z,51.24
2019-03-28T23:09:51.787Z,51.44
2019-03-28T23:12:19.226Z,51.47
2019-03-28T23:14:46.639Z,51.61
2019-03-28T23:17:14.043Z,52.01
2019-03-28T23:19:41.453Z,52.14
2019-03-28T23:22:08.858Z,52.23
2019-03-28T23:24:38.911Z,52.07
2019-03-28T23:27:03.675Z,51.96
2019-03-28T23:29:32.102Z,52.06
2019-03-28T23:31:59.536Z,52.68
2019-03-28T23:34:26.959Z,53.49
2019-03-28T23:36:54.363Z,53.89
2019-03-28T23:39:21.759Z,54.01
2019-03-28T23:41:49.162Z,53.88
2019-03-28T23:44:16.562Z,54.14
2019-03-28T23:46:44.290Z,54.79
2019-03-28T23:49:11.694Z,55.11
2019-03-28T23:51:39.108Z,55.28
2019-03-28T23:54:06.506Z,55.18
2019-03-28T23:56:33.913Z,55.05
2019-03-28T23:59:01.442Z,54.94
